Time;durP1;ratioP1;P1;durP2;ratioP2;P2;SDS_P1;SDS_P2;PMS_P1;PMS_P2;Temp;Humidity;BMP_temperature;BMP_pressure;BME280_temperature;BME280_humidity;BME280_pressure;Samples;Min_cycle;Max_cycle;Signal;HPM_P1;HPM_P2
2023/06/18 00:01:02;;;;;;;;;;;;;;;;;;5076605;28;19956;-66
2023/06/18 00:03:28;;;;;;;;;;;;;;;;;;5076828;28;20024;-67
2023/06/18 00:05:54;;;;;;;;;;;;;;;;;;5076941;28;20431;-67
2023/06/18 00:08:20;;;;;;;;;;;;;;;;;;5076440;28;20005;-65
2023/06/18 00:10:46;;;;;;;;;;;;;;;;;;5076960;28;20439;-68
2023/06/18 00:13:12;;;;;;;;;;;;;;;;;;5076661;28;20072;-66
2023/06/18 00:15:38;;;;;;;;;;;;;;;;;;5076587;28;20502;-67
2023/06/18 00:18:03;;;;;;;;;;;;;;;;;;5076295;28;19962;-67
2023/06/18 00:20:29;;;;;;;;;;;;;;;;;;5076210;28;19970;-65
2023/06/18 00:22:55;;;;;;;;;;;;;;;;;;5076205;28;19955;-66
2023/06/18 00:25:21;;;;;;;;;;;;;;;;;;5076406;28;20455;-66
2023/06/18 00:27:47;;;;;;;;;;;;;;;;;;5076427;28;20050;-66
2023/06/18 00:30:14;;;;;;;;;;;;;;;;;;5076054;28;20409;-66
2023/06/18 00:32:44;;;;;;;;;;;;;;;;;;5074462;28;19963;-64
2023/06/18 00:35:10;;;;;;;;;;;;;;;;;;5076225;28;19972;-66
2023/06/18 00:37:36;;;;;;;;;;;;;;;;;;5075960;28;20364;-66
2023/06/18 00:40:02;;;;;;;;;;;;;;;;;;5075455;28;20006;-66
2023/06/18 00:42:28;;;;;;;;;;;;;;;;;;5075724;28;19963;-67
2023/06/18 00:44:54;;;;;;;;;;;;;;;;;;5076253;28;19979;-66
2023/06/18 00:47:20;;;;;;;;;;;;;;;;;;5076355;28;19955;-65
2023/06/18 00:49:47;;;;;;;;;;;;;;;;;;5075698;28;19978;-66
2023/06/18 00:52:13;;;;;;;;;;;;;;;;;;5075940;28;19989;-66
2023/06/18 00:54:39;;;;;;;;;;;;;;;;;;5075599;28;19956;-66
2023/06/18 00:57:08;;;;;;;;;;;;;;;;;;5076106;28;19963;-67
2023/06/18 00:59:34;;;;;;;;;;;;;;;;;;5075839;28;19955;-66
2023/06/18 01:02:01;;;;;;;;;;;;;;;;;;5075706;28;19964;-66
2023/06/18 01:04:27;;;;;;;;;;;;;;;;;;5075404;28;20437;-67
2023/06/18 01:06:53;;;;;;;;;;;;;;;;;;5075940;28;19999;-66
2023/06/18 01:09:20;;;;;;;;;;;;;;;;;;5075360;28;19963;-67
2023/06/18 01:11:46;;;;;;;;;;;;;;;;;;5075340;28;20453;-66
2023/06/18 01:14:11;;;;;;;;;;;;;;;;;;5075287;28;20002;-64
2023/06/18 01:16:37;;;;;;;;;;;;;;;;;;5075458;28;19960;-65
2023/06/18 01:19:04;;;;;;;;;;;;;;;;;;5075075;28;20425;-65
2023/06/18 01:21:30;;;;;;;;;;;;;;;;;;5075086;28;20004;-64
2023/06/18 01:23:57;;;;;;;;;;;;;;;;;;5074916;28;19979;-66
2023/06/18 01:26:23;;;;;;;;;;;;;;;;;;5075240;28;19959;-65
2023/06/18 01:28:49;;;;;;;;;;;;;;;;;;5074964;28;20356;-66
2023/06/18 01:31:16;;;;;;;;;;;;;;;;;;5075404;28;20393;-66
2023/06/18 01:33:41;;;;;;;;;;;;;;;;;;5074774;28;20003;-67
2023/06/18 01:36:07;;;;;;;;;;;;;;;;;;5074792;28;20417;-66
2023/06/18 01:38:33;;;;;;;;;;;;;;;;;;5074693;28;19956;-67
2023/06/18 01:40:59;;;;;;;;;;;;;;;;;;5074903;28;20390;-66
2023/06/18 01:43:25;;;;;;;;;;;;;;;;;;5074603;28;19991;-66
2023/06/18 01:45:51;;;;;;;;;;;;;;;;;;5075038;28;20487;-66
2023/06/18 01:48:17;;;;;;;;;;;;;;;;;;5074543;28;19956;-66
2023/06/18 01:50:43;;;;;;;;;;;;;;;;;;5074298;28;20310;-67
2023/06/18 01:53:09;;;;;;;;;;;;;;;;;;5074501;28;20153;-67
2023/06/18 01:55:37;;;;;;;;;;;;;;;;;;5074731;28;20009;-67
2023/06/18 01:58:03;;;;;;;;;;;;;;;;;;5074373;28;19956;-67
2023/06/18 02:00:29;;;;;;;;;;;;;;;;;;5074567;28;20074;-66
2023/06/18 02:02:55;;;;;;;;;;;;;;;;;;5074567;28;19959;-65
2023/06/18 02:05:21;;;;;;;;;;;;;;;;;;5074125;28;19976;-68
2023/06/18 02:07:47;;;;;;;;;;;;;;;;;;5074163;28;19994;-67
2023/06/18 02:10:14;;;;;;;;;;;;;;;;;;5074126;28;19961;-67
2023/06/18 02:12:40;;;;;;;;;;;;;;;;;;5073862;28;19960;-67
2023/06/18 02:15:06;;;;;;;;;;;;;;;;;;5074349;28;19956;-67
2023/06/18 02:17:32;;;;;;;;;;;;;;;;;;5074062;28;20049;-64
2023/06/18 02:19:58;;;;;;;;;;;;;;;;;;5074266;28;19960;-67
2023/06/18 02:22:24;;;;;;;;;;;;;;;;;;5074250;28;20036;-65
2023/06/18 02:24:50;;;;;;;;;;;;;;;;;;5073857;28;19998;-67
2023/06/18 02:27:15;;;;;;;;;;;;;;;;;;5074415;28;20397;-67
2023/06/18 02:29:41;;;;;;;;;;;;;;;;;;5074122;28;20049;-66
2023/06/18 02:32:07;;;;;;;;;;;;;;;;;;5072274;28;20332;-66
2023/06/18 02:34:34;;;;;;;;;;;;;;;;;;5073718;28;20062;-67
2023/06/18 02:37:00;;;;;;;;;;;;;;;;;;5074076;28;19960;-66
2023/06/18 02:39:26;;;;;;;;;;;;;;;;;;5073788;28;19956;-67
2023/06/18 02:41:52;;;;;;;;;;;;;;;;;;5073999;28;20345;-65
2023/06/18 02:44:18;;;;;;;;;;;;;;;;;;5073893;28;19991;-65
2023/06/18 02:46:44;;;;;;;;;;;;;;;;;;5073877;28;19971;-65
2023/06/18 02:49:10;;;;;;;;;;;;;;;;;;5072387;28;20380;-66
2023/06/18 02:51:37;;;;;;;;;;;;;;;;;;5074125;28;19971;-66
2023/06/18 02:54:02;;;;;;;;;;;;;;;;;;5072353;28;19960;-67
2023/06/18 02:56:29;;;;;;;;;;;;;;;;;;5073821;28;20325;-65
2023/06/18 02:58:58;;;;;;;;;;;;;;;;;;5073581;28;19959;-65
2023/06/18 03:01:24;;;;;;;;;;;;;;;;;;5074087;28;20013;-67
2023/06/18 03:03:50;;;;;;;;;;;;;;;;;;5078024;28;19955;-66
2023/06/18 03:06:16;;;;;;;;;;;;;;;;;;5080141;28;19959;-67
2023/06/18 03:08:42;;;;;;;;;;;;;;;;;;5080135;28;20302;-66
2023/06/18 03:11:08;;;;;;;;;;;;;;;;;;5080103;28;19955;-66
2023/06/18 03:13:34;;;;;;;;;;;;;;;;;;5080132;28;20066;-66
2023/06/18 03:16:00;;;;;;;;;;;;;;;;;;5080330;28;19990;-65
2023/06/18 03:18:26;;;;;;;;;;;;;;;;;;5080005;28;19955;-67
2023/06/18 03:20:53;;;;;;;;;;;;;;;;;;5080267;28;19978;-65
2023/06/18 03:23:19;;;;;;;;;;;;;;;;;;5079986;28;19962;-65
2023/06/18 03:25:45;;;;;;;;;;;;;;;;;;5080180;28;19975;-66
2023/06/18 03:28:11;;;;;;;;;;;;;;;;;;5078687;28;19959;-66
2023/06/18 03:30:38;;;;;;;;;;;;;;;;;;5080227;28;20320;-65
2023/06/18 03:33:04;;;;;;;;;;;;;;;;;;5079917;28;19955;-65
2023/06/18 03:35:32;;;;;;;;;;;;;;;;;;5080343;28;20368;-67
2023/06/18 03:37:58;;;;;;;;;;;;;;;;;;5080746;28;20326;-66
2023/06/18 03:40:24;;;;;;;;;;;;;;;;;;5079835;28;19966;-67
2023/06/18 03:42:50;;;;;;;;;;;;;;;;;;5079880;28;19987;-66
2023/06/18 03:45:16;;;;;;;;;;;;;;;;;;5080542;28;19982;-64
2023/06/18 03:47:42;;;;;;;;;;;;;;;;;;5079746;28;19962;-67
2023/06/18 03:50:08;;;;;;;;;;;;;;;;;;5079810;28;19962;-66
2023/06/18 03:52:33;;;;;;;;;;;;;;;;;;5080040;28;19956;-67
2023/06/18 03:54:59;;;;;;;;;;;;;;;;;;5079646;28;20044;-66
2023/06/18 03:57:25;;;;;;;;;;;;;;;;;;5079659;28;19991;-65
2023/06/18 03:59:52;;;;;;;;;;;;;;;;;;5079593;28;19955;-67
2023/06/18 04:02:18;;;;;;;;;;;;;;;;;;5078130;28;19960;-67
2023/06/18 04:04:44;;;;;;;;;;;;;;;;;;5079496;28;19979;-67
2023/06/18 04:07:10;;;;;;;;;;;;;;;;;;5078277;28;19963;-66
2023/06/18 04:09:36;;;;;;;;;;;;;;;;;;5079614;28;19962;-66
2023/06/18 04:12:02;;;;;;;;;;;;;;;;;;5080150;28;20050;-67
2023/06/18 04:14:28;;;;;;;;;;;;;;;;;;5079246;28;19956;-65
2023/06/18 04:16:54;;;;;;;;;;;;;;;;;;5076292;28;19962;-67
2023/06/18 04:19:21;;;;;;;;;;;;;;;;;;5076328;28;19956;-67
2023/06/18 04:21:47;;;;;;;;;;;;;;;;;;5077323;28;20054;-65
2023/06/18 04:24:12;;;;;;;;;;;;;;;;;;5076386;28;20069;-65
2023/06/18 04:26:38;;;;;;;;;;;;;;;;;;5076424;28;20000;-67
2023/06/18 04:29:05;;;;;;;;;;;;;;;;;;5076131;28;19966;-67
2023/06/18 04:31:30;;;;;;;;;;;;;;;;;;5076672;28;19955;-67
2023/06/18 04:33:56;;;;;;;;;;;;;;;;;;5076158;28;19972;-66
2023/06/18 04:36:22;;;;;;;;;;;;;;;;;;5075958;28;20433;-67
2023/06/18 04:38:48;;;;;;;;;;;;;;;;;;5075926;28;19955;-65
2023/06/18 04:41:14;;;;;;;;;;;;;;;;;;5075902;28;20437;-67
2023/06/18 04:43:40;;;;;;;;;;;;;;;;;;5075706;28;19991;-67
2023/06/18 04:46:06;;;;;;;;;;;;;;;;;;5076538;28;19987;-65
2023/06/18 04:48:34;;;;;;;;;;;;;;;;;;5075745;28;19959;-66
2023/06/18 04:50:59;;;;;;;;;;;;;;;;;;5075998;28;20008;-66
2023/06/18 04:53:25;;;;;;;;;;;;;;;;;;5075671;28;19955;-66
2023/06/18 04:55:51;;;;;;;;;;;;;;;;;;5075605;28;19962;-66
2023/06/18 04:58:19;;;;;;;;;;;;;;;;;;5075576;28;19963;-66
2023/06/18 05:00:46;;;;;;;;;;;;;;;;;;5075828;28;19955;-67
2023/06/18 05:03:12;;;;;;;;;;;;;;;;;;5075784;28;19978;-66
2023/06/18 05:05:38;;;;;;;;;;;;;;;;;;5075308;28;20433;-65
2023/06/18 05:08:04;;;;;;;;;;;;;;;;;;5075383;28;19985;-66
2023/06/18 05:10:30;;;;;;;;;;;;;;;;;;5075271;28;20452;-66
2023/06/18 05:12:56;;;;;;;;;;;;;;;;;;5075259;28;19956;-67
2023/06/18 05:15:22;;;;;;;;;;;;;;;;;;5075247;28;19999;-67
2023/06/18 05:17:47;;;;;;;;;;;;;;;;;;5075490;28;19956;-67
2023/06/18 05:20:13;;;;;;;;;;;;;;;;;;5075130;28;20375;-65
2023/06/18 05:22:40;;;;;;;;;;;;;;;;;;5075051;28;19962;-66
2023/06/18 05:25:06;;;;;;;;;;;;;;;;;;5075209;28;20015;-67
2023/06/18 05:27:31;;;;;;;;;;;;;;;;;;5074394;28;20013;-66
2023/06/18 05:29:59;;;;;;;;;;;;;;;;;;5075473;28;20038;-67
2023/06/18 05:32:25;;;;;;;;;;;;;;;;;;5074923;28;20326;-65
2023/06/18 05:34:50;;;;;;;;;;;;;;;;;;5074994;28;19979;-67
2023/06/18 05:37:16;;;;;;;;;;;;;;;;;;5073542;28;20004;-64
2023/06/18 05:39:42;;;;;;;;;;;;;;;;;;5074703;28;19954;-65
2023/06/18 05:42:08;;;;;;;;;;;;;;;;;;5074649;28;20440;-66
2023/06/18 05:44:34;;;;;;;;;;;;;;;;;;5074146;28;20015;-66
2023/06/18 05:47:00;;;;;;;;;;;;;;;;;;5075364;28;20003;-67
2023/06/18 05:49:26;;;;;;;;;;;;;;;;;;5074571;28;20340;-66
2023/06/18 05:51:52;;;;;;;;;;;;;;;;;;5074795;28;19955;-67
2023/06/18 05:54:18;;;;;;;;;;;;;;;;;;5074431;28;20368;-67
2023/06/18 05:56:44;;;;;;;;;;;;;;;;;;5074384;28;20003;-67
2023/06/18 05:59:10;;;;;;;;;;;;;;;;;;5074688;28;19955;-66
2023/06/18 06:01:36;;;;;;;;;;;;;;;;;;5074333;28;19956;-65
2023/06/18 06:04:02;;;;;;;;;;;;;;;;;;5074196;28;20017;-67
2023/06/18 06:06:28;;;;;;;;;;;;;;;;;;5074209;28;20039;-65
2023/06/18 06:08:54;;;;;;;;;;;;;;;;;;5074462;28;20381;-65
2023/06/18 06:11:20;;;;;;;;;;;;;;;;;;5074127;28;20050;-67
2023/06/18 06:13:45;;;;;;;;;;;;;;;;;;5074105;28;19993;-66
2023/06/18 06:16:11;;;;;;;;;;;;;;;;;;5074631;28;20295;-66
2023/06/18 06:18:37;;;;;;;;;;;;;;;;;;5072761;28;20364;-67
2023/06/18 06:21:03;;;;;;;;;;;;;;;;;;5074476;28;20082;-65
2023/06/18 06:23:30;;;;;;;;;;;;;;;;;;5073928;28;19955;-67
2023/06/18 06:25:56;;;;;;;;;;;;;;;;;;5074094;28;20076;-66
2023/06/18 06:28:21;;;;;;;;;;;;;;;;;;5073961;28;20358;-66
2023/06/18 06:30:47;;;;;;;;;;;;;;;;;;5074396;28;20436;-66
2023/06/18 06:33:13;;;;;;;;;;;;;;;;;;5073817;28;20041;-67
2023/06/18 06:35:39;;;;;;;;;;;;;;;;;;5074025;28;20021;-67
2023/06/18 06:38:05;;;;;;;;;;;;;;;;;;5072931;28;19991;-67
2023/06/18 06:40:31;;;;;;;;;;;;;;;;;;5073700;28;19956;-67
2023/06/18 06:42:57;;;;;;;;;;;;;;;;;;5073246;28;20041;-66
2023/06/18 06:45:23;;;;;;;;;;;;;;;;;;5074410;28;19979;-68
2023/06/18 06:47:49;;;;;;;;;;;;;;;;;;5073894;28;20002;-65
2023/06/18 06:50:15;;;;;;;;;;;;;;;;;;5073662;28;19995;-65
2023/06/18 06:52:41;;;;;;;;;;;;;;;;;;5073832;28;20409;-67
2023/06/18 06:55:07;;;;;;;;;;;;;;;;;;5073863;28;19956;-67
2023/06/18 06:57:32;;;;;;;;;;;;;;;;;;5073559;28;20047;-65
2023/06/18 06:59:59;;;;;;;;;;;;;;;;;;5073780;28;19955;-67
2023/06/18 07:02:25;;;;;;;;;;;;;;;;;;5073800;28;19964;-66
2023/06/18 07:04:51;;;;;;;;;;;;;;;;;;5073690;28;19975;-67
2023/06/18 07:07:16;;;;;;;;;;;;;;;;;;5073705;28;19959;-66
2023/06/18 07:09:42;;;;;;;;;;;;;;;;;;5073992;28;19991;-66
2023/06/18 07:12:08;;;;;;;;;;;;;;;;;;5073388;28;19962;-67
2023/06/18 07:14:34;;;;;;;;;;;;;;;;;;5073416;28;19967;-65
2023/06/18 07:17:00;;;;;;;;;;;;;;;;;;5073922;28;19956;-66
2023/06/18 07:19:26;;;;;;;;;;;;;;;;;;5073358;28;20007;-66
2023/06/18 07:21:53;;;;;;;;;;;;;;;;;;5073281;28;20451;-66
2023/06/18 07:24:19;;;;;;;;;;;;;;;;;;5073308;28;19998;-66
2023/06/18 07:26:45;;;;;;;;;;;;;;;;;;5073858;28;19960;-66
2023/06/18 07:29:11;;;;;;;;;;;;;;;;;;5073208;28;20047;-65
2023/06/18 07:31:37;;;;;;;;;;;;;;;;;;5073485;28;19955;-67
2023/06/18 07:34:03;;;;;;;;;;;;;;;;;;5073109;28;19979;-65
2023/06/18 07:36:29;;;;;;;;;;;;;;;;;;5073446;28;19998;-65
2023/06/18 07:38:55;;;;;;;;;;;;;;;;;;5073169;28;19959;-66
2023/06/18 07:41:21;;;;;;;;;;;;;;;;;;5073126;28;19955;-65
2023/06/18 07:43:47;;;;;;;;;;;;;;;;;;5072942;28;20532;-66
2023/06/18 07:46:13;;;;;;;;;;;;;;;;;;5074102;28;20031;-66
2023/06/18 07:48:39;;;;;;;;;;;;;;;;;;5073088;28;20009;-67
2023/06/18 07:51:05;;;;;;;;;;;;;;;;;;5076828;28;19963;-65
2023/06/18 07:53:32;;;;;;;;;;;;;;;;;;5077149;28;20042;-66
2023/06/18 07:55:58;;;;;;;;;;;;;;;;;;5076793;28;19991;-66
2023/06/18 07:58:24;;;;;;;;;;;;;;;;;;5077280;28;20402;-66
2023/06/18 08:00:50;;;;;;;;;;;;;;;;;;5076945;28;19955;-67
2023/06/18 08:03:16;;;;;;;;;;;;;;;;;;5077138;28;19998;-66
2023/06/18 08:05:41;;;;;;;;;;;;;;;;;;5076481;28;20349;-66
2023/06/18 08:08:07;;;;;;;;;;;;;;;;;;5077051;28;20461;-66
2023/06/18 08:10:33;;;;;;;;;;;;;;;;;;5076741;28;19956;-65
2023/06/18 08:12:59;;;;;;;;;;;;;;;;;;5076400;28;20444;-67
2023/06/18 08:15:25;;;;;;;;;;;;;;;;;;5076641;28;19959;-66
2023/06/18 08:17:51;;;;;;;;;;;;;;;;;;5076361;28;19962;-65
2023/06/18 08:20:17;;;;;;;;;;;;;;;;;;5076828;28;20038;-66
2023/06/18 08:22:43;;;;;;;;;;;;;;;;;;5076169;28;19955;-66
2023/06/18 08:25:09;;;;;;;;;;;;;;;;;;5076143;28;19976;-65
2023/06/18 08:27:35;;;;;;;;;;;;;;;;;;5076194;28;20009;-65
2023/06/18 08:30:01;;;;;;;;;;;;;;;;;;5076424;28;20009;-67
2023/06/18 08:32:27;;;;;;;;;;;;;;;;;;5076094;28;19962;-65
2023/06/18 08:34:53;;;;;;;;;;;;;;;;;;5076100;28;20018;-66
2023/06/18 08:37:18;;;;;;;;;;;;;;;;;;5076282;28;19956;-66
2023/06/18 08:39:44;;;;;;;;;;;;;;;;;;5075956;28;19959;-66
2023/06/18 08:42:17;;;;;;;;;;;;;;;;;;5076497;28;19956;-67
2023/06/18 08:44:43;;;;;;;;;;;;;;;;;;5075441;28;20002;-67
2023/06/18 08:47:09;;;;;;;;;;;;;;;;;;5076350;28;19959;-66
2023/06/18 08:49:35;;;;;;;;;;;;;;;;;;5076327;28;20494;-66
2023/06/18 08:52:01;;;;;;;;;;;;;;;;;;5076042;28;19961;-67
2023/06/18 08:54:26;;;;;;;;;;;;;;;;;;5075963;28;20432;-66
2023/06/18 08:56:52;;;;;;;;;;;;;;;;;;5075944;28;19956;-66
2023/06/18 08:59:18;;;;;;;;;;;;;;;;;;5074140;28;19959;-67
2023/06/18 09:01:44;;;;;;;;;;;;;;;;;;5075173;28;20025;-66
2023/06/18 09:04:10;;;;;;;;;;;;;;;;;;5075461;28;19959;-65
2023/06/18 09:06:36;;;;;;;;;;;;;;;;;;5075495;28;19955;-67
2023/06/18 09:09:04;;;;;;;;;;;;;;;;;;5075682;28;19966;-66
2023/06/18 09:11:31;;;;;;;;;;;;;;;;;;5075613;28;20385;-67
2023/06/18 09:13:57;;;;;;;;;;;;;;;;;;5075557;28;19960;-67
2023/06/18 09:16:23;;;;;;;;;;;;;;;;;;5075200;28;19963;-66
2023/06/18 09:18:49;;;;;;;;;;;;;;;;;;5075721;28;20390;-66
2023/06/18 09:21:15;;;;;;;;;;;;;;;;;;5075398;28;19968;-65
2023/06/18 09:23:41;;;;;;;;;;;;;;;;;;5075094;28;19956;-67
2023/06/18 09:26:07;;;;;;;;;;;;;;;;;;5074940;28;19982;-67
2023/06/18 09:28:33;;;;;;;;;;;;;;;;;;5075545;28;19956;-65
2023/06/18 09:30:59;;;;;;;;;;;;;;;;;;5075205;28;19959;-67
2023/06/18 09:33:25;;;;;;;;;;;;;;;;;;5074894;28;20314;-66
2023/06/18 09:35:51;;;;;;;;;;;;;;;;;;5074779;28;20065;-67
2023/06/18 09:38:17;;;;;;;;;;;;;;;;;;5075029;28;20038;-67
2023/06/18 09:40:43;;;;;;;;;;;;;;;;;;5075001;28;19960;-67
2023/06/18 09:43:08;;;;;;;;;;;;;;;;;;5073184;28;20004;-67
2023/06/18 09:45:35;;;;;;;;;;;;;;;;;;5075594;28;20095;-66
2023/06/18 09:48:01;;;;;;;;;;;;;;;;;;5074669;28;19960;-65
2023/06/18 09:50:27;;;;;;;;;;;;;;;;;;5074518;28;20062;-66
2023/06/18 09:52:53;;;;;;;;;;;;;;;;;;5072984;28;19959;-67
2023/06/18 09:55:19;;;;;;;;;;;;;;;;;;5074396;28;20016;-67
2023/06/18 09:57:45;;;;;;;;;;;;;;;;;;5074412;28;19959;-67
2023/06/18 10:00:12;;;;;;;;;;;;;;;;;;5074351;28;19963;-67
2023/06/18 10:02:38;;;;;;;;;;;;;;;;;;5074605;28;19960;-65
2023/06/18 10:05:03;;;;;;;;;;;;;;;;;;5074234;28;20070;-67
2023/06/18 10:07:29;;;;;;;;;;;;;;;;;;5074225;28;20009;-67
2023/06/18 10:09:55;;;;;;;;;;;;;;;;;;5074207;28;20050;-65
2023/06/18 10:12:21;;;;;;;;;;;;;;;;;;5074277;28;19963;-65
2023/06/18 10:14:47;;;;;;;;;;;;;;;;;;5074372;28;20049;-65
2023/06/18 10:17:13;;;;;;;;;;;;;;;;;;5074088;28;19956;-65
2023/06/18 10:19:39;;;;;;;;;;;;;;;;;;5073973;28;20372;-67
2023/06/18 10:22:05;;;;;;;;;;;;;;;;;;5074292;28;19966;-67
2023/06/18 10:24:31;;;;;;;;;;;;;;;;;;5073919;28;20423;-65
2023/06/18 10:26:57;;;;;;;;;;;;;;;;;;5073902;28;19959;-65
2023/06/18 10:29:23;;;;;;;;;;;;;;;;;;5073858;28;20009;-67
2023/06/18 10:31:49;;;;;;;;;;;;;;;;;;5074316;28;19962;-67
2023/06/18 10:34:15;;;;;;;;;;;;;;;;;;5073806;28;20066;-66
2023/06/18 10:36:41;;;;;;;;;;;;;;;;;;5073751;28;19962;-67
2023/06/18 10:39:07;;;;;;;;;;;;;;;;;;5074301;28;20424;-65
2023/06/18 10:41:32;;;;;;;;;;;;;;;;;;5073723;28;19955;-66
2023/06/18 10:43:58;;;;;;;;;;;;;;;;;;5073400;28;19991;-67
2023/06/18 10:46:25;;;;;;;;;;;;;;;;;;5074201;28;19998;-67
2023/06/18 10:48:50;;;;;;;;;;;;;;;;;;5074245;28;19956;-66
2023/06/18 10:51:17;;;;;;;;;;;;;;;;;;5073867;28;19955;-65
2023/06/18 10:53:43;;;;;;;;;;;;;;;;;;5073887;28;19963;-67
2023/06/18 10:56:09;;;;;;;;;;;;;;;;;;5073599;28;19956;-67
2023/06/18 10:58:37;;;;;;;;;;;;;;;;;;5073837;28;19959;-66
2023/06/18 11:01:03;;;;;;;;;;;;;;;;;;5073855;28;19956;-67
2023/06/18 11:03:29;;;;;;;;;;;;;;;;;;5073785;28;20319;-67
2023/06/18 11:05:55;;;;;;;;;;;;;;;;;;5073699;28;19979;-66
2023/06/18 11:08:21;;;;;;;;;;;;;;;;;;5073521;28;19960;-68
2023/06/18 11:10:50;;;;;;;;;;;;;;;;;;5073723;28;19955;-67
2023/06/18 11:13:15;;;;;;;;;;;;;;;;;;5073526;28;20009;-66
2023/06/18 11:15:41;;;;;;;;;;;;;;;;;;5073410;28;19959;-66
2023/06/18 11:18:07;;;;;;;;;;;;;;;;;;5073681;28;19955;-66
2023/06/18 11:20:33;;;;;;;;;;;;;;;;;;5073291;28;19956;-65
2023/06/18 11:23:02;;;;;;;;;;;;;;;;;;5073564;28;19955;-66
2023/06/18 11:25:28;;;;;;;;;;;;;;;;;;5076526;28;19976;-65
2023/06/18 11:27:54;;;;;;;;;;;;;;;;;;5077310;28;19955;-67
2023/06/18 11:30:20;;;;;;;;;;;;;;;;;;5077574;28;20417;-65
2023/06/18 11:32:46;;;;;;;;;;;;;;;;;;5077562;28;20046;-67
2023/06/18 11:35:12;;;;;;;;;;;;;;;;;;5077066;28;20024;-67
2023/06/18 11:37:38;;;;;;;;;;;;;;;;;;5077414;28;20046;-66
2023/06/18 11:40:06;;;;;;;;;;;;;;;;;;5077063;28;20052;-67
2023/06/18 11:42:32;;;;;;;;;;;;;;;;;;5077470;28;20414;-65
2023/06/18 11:45:01;;;;;;;;;;;;;;;;;;5077514;28;19975;-65
2023/06/18 11:47:27;;;;;;;;;;;;;;;;;;5077434;28;20061;-66
2023/06/18 11:49:54;;;;;;;;;;;;;;;;;;5077106;28;19997;-65
2023/06/18 11:52:23;;;;;;;;;;;;;;;;;;5077160;28;20418;-67
2023/06/18 11:54:49;;;;;;;;;;;;;;;;;;5076814;28;20477;-68
2023/06/18 11:57:15;;;;;;;;;;;;;;;;;;5076755;28;19959;-65
2023/06/18 11:59:41;;;;;;;;;;;;;;;;;;5076726;28;19955;-68
2023/06/18 12:02:07;;;;;;;;;;;;;;;;;;5075198;28;20058;-67
2023/06/18 12:04:33;;;;;;;;;;;;;;;;;;5076561;28;20386;-65
2023/06/18 12:06:59;;;;;;;;;;;;;;;;;;5076845;28;19956;-66
2023/06/18 12:09:25;;;;;;;;;;;;;;;;;;5076515;28;20376;-66
2023/06/18 12:11:50;;;;;;;;;;;;;;;;;;5076506;28;19960;-66
2023/06/18 12:14:16;;;;;;;;;;;;;;;;;;5076428;28;20377;-66
2023/06/18 12:16:43;;;;;;;;;;;;;;;;;;5076372;28;19961;-66
2023/06/18 12:19:09;;;;;;;;;;;;;;;;;;5076428;28;19978;-68
2023/06/18 12:21:35;;;;;;;;;;;;;;;;;;5074786;28;20492;-66
2023/06/18 12:24:01;;;;;;;;;;;;;;;;;;5076320;28;19960;-67
2023/06/18 12:26:27;;;;;;;;;;;;;;;;;;5076557;28;19959;-68
2023/06/18 12:28:53;;;;;;;;;;;;;;;;;;5076241;28;19956;-67
2023/06/18 12:31:19;;;;;;;;;;;;;;;;;;5076488;28;19956;-67
2023/06/18 12:33:45;;;;;;;;;;;;;;;;;;5076072;28;19959;-68
2023/06/18 12:36:11;;;;;;;;;;;;;;;;;;5075020;28;20375;-67
2023/06/18 12:38:37;;;;;;;;;;;;;;;;;;5076590;28;19955;-66
2023/06/18 12:41:02;;;;;;;;;;;;;;;;;;5076010;28;19956;-66
2023/06/18 12:43:29;;;;;;;;;;;;;;;;;;5075712;28;20002;-67
2023/06/18 12:45:58;;;;;;;;;;;;;;;;;;5076360;28;19979;-67
2023/06/18 12:48:25;;;;;;;;;;;;;;;;;;5076111;28;20362;-65
2023/06/18 12:50:51;;;;;;;;;;;;;;;;;;5075785;28;19962;-67
2023/06/18 12:53:17;;;;;;;;;;;;;;;;;;5075731;28;19959;-67
2023/06/18 12:55:43;;;;;;;;;;;;;;;;;;5076007;28;19963;-65
2023/06/18 12:58:09;;;;;;;;;;;;;;;;;;5075652;28;20434;-65
2023/06/18 13:00:35;;;;;;;;;;;;;;;;;;5075618;28;20013;-66
2023/06/18 13:03:02;;;;;;;;;;;;;;;;;;5075779;28;19967;-66
2023/06/18 13:05:28;;;;;;;;;;;;;;;;;;5076296;28;19982;-66
2023/06/18 13:07:54;;;;;;;;;;;;;;;;;;5075443;28;19962;-65
2023/06/18 13:10:19;;;;;;;;;;;;;;;;;;5075695;28;19955;-66
2023/06/18 13:12:46;;;;;;;;;;;;;;;;;;5075359;28;20042;-68
2023/06/18 13:15:12;;;;;;;;;;;;;;;;;;5075928;28;20410;-68
2023/06/18 13:17:38;;;;;;;;;;;;;;;;;;5075309;28;19955;-68
2023/06/18 13:20:04;;;;;;;;;;;;;;;;;;5075238;28;20517;-67
2023/06/18 13:22:30;;;;;;;;;;;;;;;;;;5075141;28;20005;-68
2023/06/18 13:24:58;;;;;;;;;;;;;;;;;;5074804;28;19979;-66
2023/06/18 13:27:25;;;;;;;;;;;;;;;;;;5075287;28;20329;-68
2023/06/18 13:29:52;;;;;;;;;;;;;;;;;;5075457;28;20378;-68
2023/06/18 13:32:18;;;;;;;;;;;;;;;;;;5074611;28;20069;-67
2023/06/18 13:34:44;;;;;;;;;;;;;;;;;;5075137;28;19971;-67
2023/06/18 13:37:10;;;;;;;;;;;;;;;;;;5074861;28;20006;-66
2023/06/18 13:39:36;;;;;;;;;;;;;;;;;;5075242;28;20433;-68
2023/06/18 13:42:02;;;;;;;;;;;;;;;;;;5074728;28;20062;-67
2023/06/18 13:44:28;;;;;;;;;;;;;;;;;;5074377;28;19991;-67
2023/06/18 13:46:54;;;;;;;;;;;;;;;;;;5075018;28;19962;-68
2023/06/18 13:49:19;;;;;;;;;;;;;;;;;;5074854;28;19955;-65
2023/06/18 13:51:45;;;;;;;;;;;;;;;;;;5074556;28;20002;-66
2023/06/18 13:54:11;;;;;;;;;;;;;;;;;;5074537;28;19956;-68
2023/06/18 13:56:37;;;;;;;;;;;;;;;;;;5075046;28;20344;-67
2023/06/18 13:59:03;;;;;;;;;;;;;;;;;;5074708;28;19956;-68
2023/06/18 14:01:29;;;;;;;;;;;;;;;;;;5074361;28;20405;-67
2023/06/18 14:03:55;;;;;;;;;;;;;;;;;;5074358;28;19966;-67
2023/06/18 14:06:21;;;;;;;;;;;;;;;;;;5074538;28;20077;-65
2023/06/18 14:08:47;;;;;;;;;;;;;;;;;;5074505;28;20299;-67
2023/06/18 14:11:13;;;;;;;;;;;;;;;;;;5074792;28;20009;-65
2023/06/18 14:13:39;;;;;;;;;;;;;;;;;;5074170;28;20333;-67
2023/06/18 14:16:04;;;;;;;;;;;;;;;;;;5074707;28;20498;-67
2023/06/18 14:18:30;;;;;;;;;;;;;;;;;;5074387;28;19956;-67
2023/06/18 14:20:56;;;;;;;;;;;;;;;;;;5074063;28;20348;-67
2023/06/18 14:23:22;;;;;;;;;;;;;;;;;;5074307;28;20360;-67
2023/06/18 14:25:48;;;;;;;;;;;;;;;;;;5074248;28;19976;-67
2023/06/18 14:28:15;;;;;;;;;;;;;;;;;;5073966;28;19963;-66
2023/06/18 14:30:41;;;;;;;;;;;;;;;;;;5073971;28;20424;-68
2023/06/18 14:33:07;;;;;;;;;;;;;;;;;;5074430;28;19971;-65
2023/06/18 14:35:33;;;;;;;;;;;;;;;;;;5074034;28;19972;-68
2023/06/18 14:37:59;;;;;;;;;;;;;;;;;;5074100;28;19956;-66
2023/06/18 14:40:25;;;;;;;;;;;;;;;;;;5073803;28;19960;-66
2023/06/18 14:42:51;;;;;;;;;;;;;;;;;;5073759;28;19995;-66
2023/06/18 14:45:17;;;;;;;;;;;;;;;;;;5074293;28;20344;-67
2023/06/18 14:47:42;;;;;;;;;;;;;;;;;;5074978;28;19956;-66
2023/06/18 14:50:10;;;;;;;;;;;;;;;;;;5073183;28;20266;-65
2023/06/18 14:52:36;;;;;;;;;;;;;;;;;;5073901;28;20471;-66
2023/06/18 14:55:02;;;;;;;;;;;;;;;;;;5073866;28;19962;-67
2023/06/18 14:57:28;;;;;;;;;;;;;;;;;;5073617;28;20370;-67
2023/06/18 14:59:55;;;;;;;;;;;;;;;;;;5073083;28;19955;-66
2023/06/18 15:02:21;;;;;;;;;;;;;;;;;;5073781;28;19983;-68
2023/06/18 15:04:47;;;;;;;;;;;;;;;;;;5073447;28;20408;-66
2023/06/18 15:07:13;;;;;;;;;;;;;;;;;;5073527;28;20440;-65
2023/06/18 15:09:39;;;;;;;;;;;;;;;;;;5073474;28;19955;-67
2023/06/18 15:12:05;;;;;;;;;;;;;;;;;;5073746;28;19963;-66
2023/06/18 15:14:30;;;;;;;;;;;;;;;;;;5073425;28;20093;-66
2023/06/18 15:16:56;;;;;;;;;;;;;;;;;;5073931;28;19963;-65
2023/06/18 15:19:22;;;;;;;;;;;;;;;;;;5073390;28;20001;-66
2023/06/18 15:21:48;;;;;;;;;;;;;;;;;;5073925;28;20453;-67
2023/06/18 15:24:14;;;;;;;;;;;;;;;;;;5073343;28;20110;-66
2023/06/18 15:26:40;;;;;;;;;;;;;;;;;;5073611;28;20042;-67
2023/06/18 15:29:06;;;;;;;;;;;;;;;;;;5073295;28;20432;-65
2023/06/18 15:31:32;;;;;;;;;;;;;;;;;;5073797;28;20458;-66
2023/06/18 15:33:58;;;;;;;;;;;;;;;;;;5073193;28;19972;-67
2023/06/18 15:36:24;;;;;;;;;;;;;;;;;;5073474;28;20050;-67
2023/06/18 15:38:50;;;;;;;;;;;;;;;;;;5073423;28;20005;-68
2023/06/18 15:41:16;;;;;;;;;;;;;;;;;;5073173;28;19959;-67
2023/06/18 15:43:42;;;;;;;;;;;;;;;;;;5073112;28;19991;-68
2023/06/18 15:46:07;;;;;;;;;;;;;;;;;;5073649;28;19983;-65
2023/06/18 15:48:34;;;;;;;;;;;;;;;;;;5073594;28;19962;-65
2023/06/18 15:51:00;;;;;;;;;;;;;;;;;;5073127;28;19959;-67
2023/06/18 15:53:25;;;;;;;;;;;;;;;;;;5073104;28;20326;-67
2023/06/18 15:55:51;;;;;;;;;;;;;;;;;;5073012;28;19956;-68
2023/06/18 15:58:17;;;;;;;;;;;;;;;;;;5073329;28;19962;-66
2023/06/18 16:00:43;;;;;;;;;;;;;;;;;;5072963;28;20428;-66
2023/06/18 16:03:09;;;;;;;;;;;;;;;;;;5073184;28;19966;-65
2023/06/18 16:05:35;;;;;;;;;;;;;;;;;;5072776;28;19983;-66
2023/06/18 16:08:01;;;;;;;;;;;;;;;;;;5072922;28;19956;-67
2023/06/18 16:10:27;;;;;;;;;;;;;;;;;;5074385;28;19956;-68
2023/06/18 16:12:53;;;;;;;;;;;;;;;;;;5076519;28;19963;-67
2023/06/18 16:15:19;;;;;;;;;;;;;;;;;;5076742;28;19978;-65
2023/06/18 16:17:44;;;;;;;;;;;;;;;;;;5076727;28;19960;-65
2023/06/18 16:20:10;;;;;;;;;;;;;;;;;;5076385;28;19990;-66
2023/06/18 16:22:36;;;;;;;;;;;;;;;;;;5076580;28;19956;-68
2023/06/18 16:25:02;;;;;;;;;;;;;;;;;;5076223;28;19983;-65
2023/06/18 16:27:28;;;;;;;;;;;;;;;;;;5076509;28;20101;-67
2023/06/18 16:29:54;;;;;;;;;;;;;;;;;;5076200;28;19987;-66
2023/06/18 16:32:20;;;;;;;;;;;;;;;;;;5076490;28;19963;-68
2023/06/18 16:34:46;;;;;;;;;;;;;;;;;;5076069;28;19979;-65
2023/06/18 16:37:12;;;;;;;;;;;;;;;;;;5076053;28;19959;-67